Ufo 3 — IUNV — position and weather

sailwx.info

Track history (hours):
 
Tides and Currents Weather Stations Pressure Air Temp Water Temp Dewpoint Dewpoint Depression Visibility Wind Speed Wind Dir Waves Ship Positions

Ufo 3

Last reported at 2015-Apr-02 09:33 UTC. Time now 2015-Apr-02 09:43 UTC.
Position N 44°03' E 009°50'.

Length 28 m.

Type: Passenger vessel. MMSI: 247031600.

Date/timePositionNaut miles runAvg speedWind from/ knotsBaromVisibWave heightAir tempDewpointWater temp
2015-Apr-02 09:33N 44°03' E 009°50'10 8.8
2015-Apr-02 08:28N 44°09' E 009°39'2 2.5
2015-Apr-02 07:30N 44°07' E 009°42'7 7.6
2015-Apr-02 06:33N 44°03' E 009°50'0 0.4
2015-Apr-02 05:33N 44°03' E 009°51'  
2015-Mar-28 16:33N 44°05' E 009°54'3 3.3
2015-Mar-28 15:33N 44°03' E 009°50'0 0.0
2015-Mar-28 14:33N 44°03' E 009°50'0 0.0
2015-Mar-28 13:33N 44°03' E 009°50'0 0.0
2015-Mar-28 12:33N 44°03' E 009°50'0 0.5
2015-Mar-28 11:33N 44°03' E 009°50'1 0.7
2015-Mar-28 10:33N 44°03' E 009°49'7 3.1
2015-Mar-28 08:28N 44°07' E 009°42'8 8.2
2015-Mar-28 07:33N 44°03' E 009°51'0 0.0
2015-Mar-27 16:06N 44°03' E 009°51'0 0.8
2015-Mar-27 15:33N 44°03' E 009°50'0 0.0
2015-Mar-27 14:34N 44°03' E 009°50'0 0.0
2015-Mar-27 13:34N 44°03' E 009°50'0 0.0
2015-Mar-27 12:33N 44°03' E 009°50'0 0.0
2015-Mar-27 11:33N 44°03' E 009°50'0 0.0
2015-Mar-27 10:33N 44°03' E 009°50'0 0.0
2015-Mar-27 09:33N 44°03' E 009°50'0 0.0
2015-Mar-27 08:34N 44°03' E 009°50'1 0.1
2015-Mar-26 16:34N 44°04' E 009°51'1 1.3
2015-Mar-26 15:33N 44°03' E 009°50'2 1.6
2015-Mar-26 14:34N 44°03' E 009°48'2 0.3
2015-Mar-26 09:33N 44°03' E 009°50'2 2.1
2015-Mar-26 08:34N 44°05' E 009°51'2 2.2
2015-Mar-26 07:33N 44°03' E 009°51'0 0.0
2015-Mar-25 15:08N 44°03' E 009°51'0 0.7
2015-Mar-25 14:33N 44°03' E 009°50'0 0.0
2015-Mar-25 13:34N 44°03' E 009°50'0 0.0
2015-Mar-25 12:34N 44°03' E 009°50'0 0.0
2015-Mar-25 11:33N 44°03' E 009°50'0 0.0
2015-Mar-25 10:33N 44°03' E 009°50'0 0.0
2015-Mar-25 09:34N 44°03' E 009°50'0 0.0
2015-Mar-25 08:34N 44°03' E 009°50'0 0.0
2015-Mar-24 16:04N 44°03' E 009°51'0 0.8
2015-Mar-24 15:33N 44°03' E 009°50'0 0.0
2015-Mar-24 14:33N 44°03' E 009°50'0 0.2
2015-Mar-24 13:33N 44°03' E 009°50'0 0.2
2015-Mar-24 12:30N 44°03' E 009°50'0 0.0
2015-Mar-24 11:33N 44°03' E 009°50'0 0.0
2015-Mar-24 10:33N 44°03' E 009°50'0 0.0
2015-Mar-24 09:33N 44°03' E 009°50'0 0.0
2015-Mar-24 08:33N 44°03' E 009°50'0 0.4
2015-Mar-24 07:33N 44°03' E 009°51'0 0.0
2015-Mar-23 15:08N 44°03' E 009°51'2 3.7
2015-Mar-23 14:33N 44°04' E 009°48'2 0.3
2015-Mar-23 09:33N 44°03' E 009°50'  
Track history (hours):
 
Tides and Currents Weather Stations Pressure Air Temp Water Temp Dewpoint Dewpoint Depression Visibility Wind Speed Wind Dir Waves Ship Positions

Ufo 3

Last reported at 2015-Apr-02 09:33 UTC. Time now 2015-Apr-02 09:43 UTC.
Position N 44°03' E 009°50'.

Length 28 m.

Type: Passenger vessel. MMSI: 247031600.

Date/timePositionNaut miles runAvg speedWind from/ knotsBaromVisibWave heightAir tempDewpointWater temp
2015-Apr-02 09:33N 44°03' E 009°50'10 8.8
2015-Apr-02 08:28N 44°09' E 009°39'2 2.5
2015-Apr-02 07:30N 44°07' E 009°42'7 7.6
2015-Apr-02 06:33N 44°03' E 009°50'0 0.4
2015-Apr-02 05:33N 44°03' E 009°51'  
2015-Mar-28 16:33N 44°05' E 009°54'3 3.3
2015-Mar-28 15:33N 44°03' E 009°50'0 0.0
2015-Mar-28 14:33N 44°03' E 009°50'0 0.0
2015-Mar-28 13:33N 44°03' E 009°50'0 0.0
2015-Mar-28 12:33N 44°03' E 009°50'0 0.5
2015-Mar-28 11:33N 44°03' E 009°50'1 0.7
2015-Mar-28 10:33N 44°03' E 009°49'7 3.1
2015-Mar-28 08:28N 44°07' E 009°42'8 8.2
2015-Mar-28 07:33N 44°03' E 009°51'0 0.0
2015-Mar-27 16:06N 44°03' E 009°51'0 0.8
2015-Mar-27 15:33N 44°03' E 009°50'0 0.0
2015-Mar-27 14:34N 44°03' E 009°50'0 0.0
2015-Mar-27 13:34N 44°03' E 009°50'0 0.0
2015-Mar-27 12:33N 44°03' E 009°50'0 0.0
2015-Mar-27 11:33N 44°03' E 009°50'0 0.0
2015-Mar-27 10:33N 44°03' E 009°50'0 0.0
2015-Mar-27 09:33N 44°03' E 009°50'0 0.0
2015-Mar-27 08:34N 44°03' E 009°50'1 0.1
2015-Mar-26 16:34N 44°04' E 009°51'1 1.3
2015-Mar-26 15:33N 44°03' E 009°50'2 1.6
2015-Mar-26 14:34N 44°03' E 009°48'2 0.3
2015-Mar-26 09:33N 44°03' E 009°50'2 2.1
2015-Mar-26 08:34N 44°05' E 009°51'2 2.2
2015-Mar-26 07:33N 44°03' E 009°51'0 0.0
2015-Mar-25 15:08N 44°03' E 009°51'0 0.7
2015-Mar-25 14:33N 44°03' E 009°50'0 0.0
2015-Mar-25 13:34N 44°03' E 009°50'0 0.0
2015-Mar-25 12:34N 44°03' E 009°50'0 0.0
2015-Mar-25 11:33N 44°03' E 009°50'0 0.0
2015-Mar-25 10:33N 44°03' E 009°50'0 0.0
2015-Mar-25 09:34N 44°03' E 009°50'0 0.0
2015-Mar-25 08:34N 44°03' E 009°50'0 0.0
2015-Mar-24 16:04N 44°03' E 009°51'0 0.8
2015-Mar-24 15:33N 44°03' E 009°50'0 0.0
2015-Mar-24 14:33N 44°03' E 009°50'0 0.2
2015-Mar-24 13:33N 44°03' E 009°50'0 0.2
2015-Mar-24 12:30N 44°03' E 009°50'0 0.0
2015-Mar-24 11:33N 44°03' E 009°50'0 0.0
2015-Mar-24 10:33N 44°03' E 009°50'0 0.0
2015-Mar-24 09:33N 44°03' E 009°50'0 0.0
2015-Mar-24 08:33N 44°03' E 009°50'0 0.4
2015-Mar-24 07:33N 44°03' E 009°51'0 0.0
2015-Mar-23 15:08N 44°03' E 009°51'2 3.7
2015-Mar-23 14:33N 44°04' E 009°48'2 0.3
2015-Mar-23 09:33N 44°03' E 009°50'  

Dump ship's entire track history